Niceville — WDE9467 — position and weather

sailwx.info

Track history (hours):
 
Tides and Currents Weather Stations Pressure Air Temp Water Temp Dewpoint Dewpoint Depression Visibility Wind Speed Wind Dir Waves Ship Positions

Niceville

Owner: Kirby Inland Marine LP, Houston, TX. More information available from US FCC via Universal Licensing System and Coast Guard Vessel Documentation Center.

Last reported at 2017-Dec-17 05:45 UTC. Time now 2017-Dec-17 09:54 UTC.
Position N 29°45' W 095°06'.

Length 114 m; draft 3 m.

Type: . MMSI: 367417570.

Date/timePositionNaut miles runAvg speedWind from/ knotsBaromVisibWave heightAir tempDewpointWater temp
2017-Dec-17 05:45N 29°45' W 095°06'0 0.0
2017-Dec-16 14:08N 29°45' W 095°06'0 0.0
2017-Dec-16 05:43N 29°45' W 095°06'0 0.2
2017-Dec-16 04:52N 29°45' W 095°06'2 5.0
2017-Dec-16 04:28N 29°44' W 095°08'0 0.8
2017-Dec-16 04:00N 29°44' W 095°08'0 0.0
2017-Dec-15 13:59N 29°44' W 095°08'0 0.0
2017-Dec-15 13:23N 29°44' W 095°08'0 0.0
2017-Dec-15 12:47N 29°44' W 095°08'0 0.0
2017-Dec-15 12:23N 29°44' W 095°08'0 0.0
2017-Dec-15 11:59N 29°44' W 095°08'0 0.0
2017-Dec-15 11:29N 29°44' W 095°08'0 0.0
2017-Dec-15 10:50N 29°44' W 095°08'0 0.0
2017-Dec-15 10:29N 29°44' W 095°08'0 0.1
2017-Dec-15 06:07N 29°44' W 095°07'0 3.4
2017-Dec-15 05:59N 29°44' W 095°07'2 0.3
2017-Dec-15 00:34N 29°45' W 095°06'0 0.0
2017-Dec-14 14:50N 29°45' W 095°06'1 0.5
2017-Dec-14 13:51N 29°46' W 095°05'1 0.5
2017-Dec-14 12:49N 29°45' W 095°06'0 0.0
2017-Dec-14 12:13N 29°45' W 095°06'0 0.0
2017-Dec-14 11:58N 29°45' W 095°06'0 0.0
2017-Dec-13 10:34N 29°46' W 095°06'2 0.3
2017-Dec-13 02:48N 29°47' W 095°04'2 4.2
2017-Dec-13 02:22N 29°46' W 095°05'1 3.2
2017-Dec-13 01:55N 29°45' W 095°06'3 6.0
2017-Dec-13 01:28N 29°44' W 095°09'4 5.4
2017-Dec-13 00:48N 29°44' W 095°13'0 0.2
2017-Dec-12 23:35N 29°43' W 095°14'1 5.7
2017-Dec-12 23:27N 29°43' W 095°13'7 1.6
2017-Dec-12 19:03N 29°46' W 095°05'0 3.9
2017-Dec-12 18:58N 29°46' W 095°05'3 3.8
2017-Dec-12 18:14N 29°44' W 095°08'1 4.2
2017-Dec-12 18:00N 29°44' W 095°09'2 3.8
2017-Dec-12 17:24N 29°45' W 095°12'2 3.7
2017-Dec-12 16:56N 29°43' W 095°13'1 0.7
2017-Dec-12 15:50N 29°43' W 095°14'0 0.7
2017-Dec-12 15:24N 29°44' W 095°14'0 0.0
2017-Dec-12 15:00N 29°44' W 095°14'2 3.0
2017-Dec-12 14:26N 29°44' W 095°12'2 4.5
2017-Dec-12 13:54N 29°44' W 095°09'5 1.6
2017-Dec-12 10:55N 29°47' W 095°04'0 0.1
2017-Dec-12 09:54N 29°47' W 095°05'0 0.1
2017-Dec-12 09:16N 29°47' W 095°05'1 2.1
2017-Dec-12 08:56N 29°46' W 095°05'0 0.0
2017-Dec-12 08:27N 29°46' W 095°05'0 0.2
2017-Dec-12 08:00N 29°46' W 095°05'1 0.1
2017-Dec-12 03:12N 29°46' W 095°05'0 0.2
2017-Dec-12 02:03N 29°46' W 095°05'0 1.3
2017-Dec-12 02:00N 29°46' W 095°05'1 0.4
2017-Dec-11 23:12N 29°47' W 095°05'1 5.2
2017-Dec-11 22:59N 29°46' W 095°05'0 0.1
2017-Dec-11 21:02N 29°46' W 095°05'2 7.1
2017-Dec-11 20:50N 29°45' W 095°06'2 7.0
2017-Dec-11 20:29N 29°44' W 095°09'4 6.4
2017-Dec-11 19:51N 29°44' W 095°14'0 0.1
2017-Dec-11 19:16N 29°44' W 095°14'0 1.1
2017-Dec-11 19:00N 29°44' W 095°13'0 0.4
2017-Dec-11 18:30N 29°44' W 095°14'9 5.4
2017-Dec-11 16:56N 29°46' W 095°04'0 0.1
2017-Dec-11 14:59N 29°46' W 095°05'1 1.1
2017-Dec-11 14:04N 29°46' W 095°06'0 0.1
2017-Dec-11 13:58N 29°46' W 095°06'0 0.0
2017-Dec-11 13:25N 29°46' W 095°06'0 0.0
2017-Dec-11 09:51N 29°46' W 095°06'0 0.0
2017-Dec-11 09:27N 29°46' W 095°06'0 0.0
2017-Dec-11 08:48N 29°46' W 095°06'0 0.0
2017-Dec-11 08:30N 29°46' W 095°06'0 0.0
2017-Dec-11 08:00N 29°46' W 095°06'0 0.0
2017-Dec-11 07:30N 29°46' W 095°06'0 0.0
2017-Dec-11 07:00N 29°46' W 095°06'0 0.0
2017-Dec-11 06:30N 29°46' W 095°06'0 0.0
2017-Dec-11 05:57N 29°46' W 095°06'0 0.0
2017-Dec-11 05:24N 29°46' W 095°06'0 0.0
2017-Dec-11 05:00N 29°46' W 095°06'0 0.0
2017-Dec-11 04:30N 29°46' W 095°06'0 0.0
2017-Dec-11 03:54N 29°46' W 095°06'0 0.0
2017-Dec-11 03:24N 29°46' W 095°06'0 0.0
2017-Dec-11 02:21N 29°46' W 095°06'0 0.0
2017-Dec-11 01:57N 29°46' W 095°06'0 0.0
2017-Dec-11 01:21N 29°46' W 095°06'0 0.0
2017-Dec-11 00:57N 29°46' W 095°06'0 0.0
2017-Dec-11 00:24N 29°46' W 095°06'0 0.0
2017-Dec-10 23:54N 29°46' W 095°06'0 0.0
2017-Dec-10 23:30N 29°46' W 095°06'0 0.0
2017-Dec-10 22:54N 29°46' W 095°06'0 0.0
2017-Dec-10 17:18N 29°46' W 095°06'0 0.0
2017-Dec-10 16:51N 29°46' W 095°06'0 0.0
2017-Dec-10 16:24N 29°46' W 095°06'0 0.0
2017-Dec-10 15:51N 29°46' W 095°06'0 0.0
2017-Dec-10 15:10N 29°46' W 095°06'0 1.0
2017-Dec-10 15:00N 29°46' W 095°05'0 0.1
2017-Dec-10 14:28N 29°46' W 095°05'0 0.4
2017-Dec-10 14:00N 29°46' W 095°06'0 0.0
2017-Dec-10 13:27N 29°46' W 095°06'0 0.0
2017-Dec-10 11:41N 29°46' W 095°06'0 0.5
2017-Dec-10 11:30N 29°46' W 095°06'0 0.6
2017-Dec-10 10:48N 29°45' W 095°06'1 2.5
2017-Dec-10 10:30N 29°46' W 095°05'1 2.6
2017-Dec-10 10:00N 29°45' W 095°04'2 2.9
2017-Dec-10 09:18N 29°47' W 095°04'0 0.2
2017-Dec-10 08:59N 29°47' W 095°04'1 0.6
2017-Dec-10 07:11N 29°46' W 095°05'1 5.2
2017-Dec-10 06:58N 29°45' W 095°06'1 1.6
2017-Dec-10 06:29N 29°46' W 095°05'2 3.8
2017-Dec-10 05:59N 29°48' W 095°04'1 0.5
2017-Dec-10 04:46N 29°47' W 095°04'2 5.0
2017-Dec-10 04:27N 29°46' W 095°06'1 1.5
2017-Dec-10 03:56N 29°46' W 095°07'1 0.5
2017-Dec-10 01:59N 29°45' W 095°06'2 1.5
2017-Dec-10 00:32N 29°47' W 095°04'0 0.1
2017-Dec-10 00:27N 29°47' W 095°04'2 4.9
2017-Dec-09 23:58N 29°45' W 095°06'2 3.6
2017-Dec-09 23:24N 29°44' W 095°03'2 2.4
2017-Dec-09 22:31N 29°43' W 095°01'0 4.8
2017-Dec-09 22:30N 29°44' W 095°01'4 0.6
2017-Dec-09 15:53N 29°46' W 095°05'3 5.2
2017-Dec-09 15:18N 29°44' W 095°08'2 6.9
2017-Dec-09 15:00N 29°45' W 095°10'3 6.5
2017-Dec-09 14:30N 29°44' W 095°14'1 0.1
2017-Dec-09 09:47N 29°43' W 095°14'0 0.2
2017-Dec-09 09:29N 29°43' W 095°14'0 0.9
2017-Dec-09 09:00N 29°44' W 095°14'2 3.6
2017-Dec-09 08:30N 29°44' W 095°12'2 3.8
2017-Dec-09 08:00N 29°45' W 095°10'2 3.9
2017-Dec-09 07:29N 29°44' W 095°08'2 4.0
2017-Dec-09 07:00N 29°45' W 095°06'2 3.6
2017-Dec-09 06:28N 29°47' W 095°04'1 0.3
2017-Dec-09 04:33N 29°47' W 095°04'0 1.8
2017-Dec-09 04:23N 29°47' W 095°04'0 0.1
2017-Dec-08 23:03N 29°47' W 095°04'0 0.0
2017-Dec-08 22:54N 29°47' W 095°04'2 0.5
2017-Dec-08 19:18N 29°46' W 095°05'0 0.0
2017-Dec-08 14:07N 29°46' W 095°06'1 0.1
2017-Dec-07 23:49N 29°47' W 095°04'2 0.8
2017-Dec-07 21:25N 29°45' W 095°06'1 1.6
2017-Dec-07 20:53N 29°46' W 095°05'0 0.7
2017-Dec-07 20:30N 29°46' W 095°05'0 0.1
2017-Dec-07 17:05N 29°46' W 095°06'0 0.0
2017-Dec-07 17:00N 29°46' W 095°06'3 1.4
2017-Dec-07 15:02N 29°44' W 095°08'0 7.0
2017-Dec-07 15:00N 29°44' W 095°08'3 6.1
2017-Dec-07 14:30N 29°45' W 095°12'3 5.2
2017-Dec-07 13:59N 29°43' W 095°14'0 0.7
2017-Dec-07 13:29N 29°43' W 095°14'3 6.6
2017-Dec-07 12:59N 29°45' W 095°11'3 6.7
2017-Dec-07 12:30N 29°44' W 095°07'2 1.0
2017-Dec-07 10:30N 29°46' W 095°05'5 4.8
2017-Dec-07 09:32N 29°43' W 095°01'0 5.7
2017-Dec-07 09:30N 29°43' W 095°01'  
Track history (hours):
 
Tides and Currents Weather Stations Pressure Air Temp Water Temp Dewpoint Dewpoint Depression Visibility Wind Speed Wind Dir Waves Ship Positions

Niceville

Owner: Kirby Inland Marine LP, Houston, TX. More information available from US FCC via Universal Licensing System and Coast Guard Vessel Documentation Center.

Last reported at 2017-Dec-17 05:45 UTC. Time now 2017-Dec-17 09:54 UTC.
Position N 29°45' W 095°06'.

Length 114 m; draft 3 m.

Type: . MMSI: 367417570.

Date/timePositionNaut miles runAvg speedWind from/ knotsBaromVisibWave heightAir tempDewpointWater temp
2017-Dec-17 05:45N 29°45' W 095°06'0 0.0
2017-Dec-16 14:08N 29°45' W 095°06'0 0.0
2017-Dec-16 05:43N 29°45' W 095°06'0 0.2
2017-Dec-16 04:52N 29°45' W 095°06'2 5.0
2017-Dec-16 04:28N 29°44' W 095°08'0 0.8
2017-Dec-16 04:00N 29°44' W 095°08'0 0.0
2017-Dec-15 13:59N 29°44' W 095°08'0 0.0
2017-Dec-15 13:23N 29°44' W 095°08'0 0.0
2017-Dec-15 12:47N 29°44' W 095°08'0 0.0
2017-Dec-15 12:23N 29°44' W 095°08'0 0.0
2017-Dec-15 11:59N 29°44' W 095°08'0 0.0
2017-Dec-15 11:29N 29°44' W 095°08'0 0.0
2017-Dec-15 10:50N 29°44' W 095°08'0 0.0
2017-Dec-15 10:29N 29°44' W 095°08'0 0.1
2017-Dec-15 06:07N 29°44' W 095°07'0 3.4
2017-Dec-15 05:59N 29°44' W 095°07'2 0.3
2017-Dec-15 00:34N 29°45' W 095°06'0 0.0
2017-Dec-14 14:50N 29°45' W 095°06'1 0.5
2017-Dec-14 13:51N 29°46' W 095°05'1 0.5
2017-Dec-14 12:49N 29°45' W 095°06'0 0.0
2017-Dec-14 12:13N 29°45' W 095°06'0 0.0
2017-Dec-14 11:58N 29°45' W 095°06'0 0.0
2017-Dec-13 10:34N 29°46' W 095°06'2 0.3
2017-Dec-13 02:48N 29°47' W 095°04'2 4.2
2017-Dec-13 02:22N 29°46' W 095°05'1 3.2
2017-Dec-13 01:55N 29°45' W 095°06'3 6.0
2017-Dec-13 01:28N 29°44' W 095°09'4 5.4
2017-Dec-13 00:48N 29°44' W 095°13'0 0.2
2017-Dec-12 23:35N 29°43' W 095°14'1 5.7
2017-Dec-12 23:27N 29°43' W 095°13'7 1.6
2017-Dec-12 19:03N 29°46' W 095°05'0 3.9
2017-Dec-12 18:58N 29°46' W 095°05'3 3.8
2017-Dec-12 18:14N 29°44' W 095°08'1 4.2
2017-Dec-12 18:00N 29°44' W 095°09'2 3.8
2017-Dec-12 17:24N 29°45' W 095°12'2 3.7
2017-Dec-12 16:56N 29°43' W 095°13'1 0.7
2017-Dec-12 15:50N 29°43' W 095°14'0 0.7
2017-Dec-12 15:24N 29°44' W 095°14'0 0.0
2017-Dec-12 15:00N 29°44' W 095°14'2 3.0
2017-Dec-12 14:26N 29°44' W 095°12'2 4.5
2017-Dec-12 13:54N 29°44' W 095°09'5 1.6
2017-Dec-12 10:55N 29°47' W 095°04'0 0.1
2017-Dec-12 09:54N 29°47' W 095°05'0 0.1
2017-Dec-12 09:16N 29°47' W 095°05'1 2.1
2017-Dec-12 08:56N 29°46' W 095°05'0 0.0
2017-Dec-12 08:27N 29°46' W 095°05'0 0.2
2017-Dec-12 08:00N 29°46' W 095°05'1 0.1
2017-Dec-12 03:12N 29°46' W 095°05'0 0.2
2017-Dec-12 02:03N 29°46' W 095°05'0 1.3
2017-Dec-12 02:00N 29°46' W 095°05'1 0.4
2017-Dec-11 23:12N 29°47' W 095°05'1 5.2
2017-Dec-11 22:59N 29°46' W 095°05'0 0.1
2017-Dec-11 21:02N 29°46' W 095°05'2 7.1
2017-Dec-11 20:50N 29°45' W 095°06'2 7.0
2017-Dec-11 20:29N 29°44' W 095°09'4 6.4
2017-Dec-11 19:51N 29°44' W 095°14'0 0.1
2017-Dec-11 19:16N 29°44' W 095°14'0 1.1
2017-Dec-11 19:00N 29°44' W 095°13'0 0.4
2017-Dec-11 18:30N 29°44' W 095°14'9 5.4
2017-Dec-11 16:56N 29°46' W 095°04'0 0.1
2017-Dec-11 14:59N 29°46' W 095°05'1 1.1
2017-Dec-11 14:04N 29°46' W 095°06'0 0.1
2017-Dec-11 13:58N 29°46' W 095°06'0 0.0
2017-Dec-11 13:25N 29°46' W 095°06'0 0.0
2017-Dec-11 09:51N 29°46' W 095°06'0 0.0
2017-Dec-11 09:27N 29°46' W 095°06'0 0.0
2017-Dec-11 08:48N 29°46' W 095°06'0 0.0
2017-Dec-11 08:30N 29°46' W 095°06'0 0.0
2017-Dec-11 08:00N 29°46' W 095°06'0 0.0
2017-Dec-11 07:30N 29°46' W 095°06'0 0.0
2017-Dec-11 07:00N 29°46' W 095°06'0 0.0
2017-Dec-11 06:30N 29°46' W 095°06'0 0.0
2017-Dec-11 05:57N 29°46' W 095°06'0 0.0
2017-Dec-11 05:24N 29°46' W 095°06'0 0.0
2017-Dec-11 05:00N 29°46' W 095°06'0 0.0
2017-Dec-11 04:30N 29°46' W 095°06'0 0.0
2017-Dec-11 03:54N 29°46' W 095°06'0 0.0
2017-Dec-11 03:24N 29°46' W 095°06'0 0.0
2017-Dec-11 02:21N 29°46' W 095°06'0 0.0
2017-Dec-11 01:57N 29°46' W 095°06'0 0.0
2017-Dec-11 01:21N 29°46' W 095°06'0 0.0
2017-Dec-11 00:57N 29°46' W 095°06'0 0.0
2017-Dec-11 00:24N 29°46' W 095°06'0 0.0
2017-Dec-10 23:54N 29°46' W 095°06'0 0.0
2017-Dec-10 23:30N 29°46' W 095°06'0 0.0
2017-Dec-10 22:54N 29°46' W 095°06'0 0.0
2017-Dec-10 17:18N 29°46' W 095°06'0 0.0
2017-Dec-10 16:51N 29°46' W 095°06'0 0.0
2017-Dec-10 16:24N 29°46' W 095°06'0 0.0
2017-Dec-10 15:51N 29°46' W 095°06'0 0.0
2017-Dec-10 15:10N 29°46' W 095°06'0 1.0
2017-Dec-10 15:00N 29°46' W 095°05'0 0.1
2017-Dec-10 14:28N 29°46' W 095°05'0 0.4
2017-Dec-10 14:00N 29°46' W 095°06'0 0.0
2017-Dec-10 13:27N 29°46' W 095°06'0 0.0
2017-Dec-10 11:41N 29°46' W 095°06'0 0.5
2017-Dec-10 11:30N 29°46' W 095°06'0 0.6
2017-Dec-10 10:48N 29°45' W 095°06'1 2.5
2017-Dec-10 10:30N 29°46' W 095°05'1 2.6
2017-Dec-10 10:00N 29°45' W 095°04'2 2.9
2017-Dec-10 09:18N 29°47' W 095°04'0 0.2
2017-Dec-10 08:59N 29°47' W 095°04'1 0.6
2017-Dec-10 07:11N 29°46' W 095°05'1 5.2
2017-Dec-10 06:58N 29°45' W 095°06'1 1.6
2017-Dec-10 06:29N 29°46' W 095°05'2 3.8
2017-Dec-10 05:59N 29°48' W 095°04'1 0.5
2017-Dec-10 04:46N 29°47' W 095°04'2 5.0
2017-Dec-10 04:27N 29°46' W 095°06'1 1.5
2017-Dec-10 03:56N 29°46' W 095°07'1 0.5
2017-Dec-10 01:59N 29°45' W 095°06'2 1.5
2017-Dec-10 00:32N 29°47' W 095°04'0 0.1
2017-Dec-10 00:27N 29°47' W 095°04'2 4.9
2017-Dec-09 23:58N 29°45' W 095°06'2 3.6
2017-Dec-09 23:24N 29°44' W 095°03'2 2.4
2017-Dec-09 22:31N 29°43' W 095°01'0 4.8
2017-Dec-09 22:30N 29°44' W 095°01'4 0.6
2017-Dec-09 15:53N 29°46' W 095°05'3 5.2
2017-Dec-09 15:18N 29°44' W 095°08'2 6.9
2017-Dec-09 15:00N 29°45' W 095°10'3 6.5
2017-Dec-09 14:30N 29°44' W 095°14'1 0.1
2017-Dec-09 09:47N 29°43' W 095°14'0 0.2
2017-Dec-09 09:29N 29°43' W 095°14'0 0.9
2017-Dec-09 09:00N 29°44' W 095°14'2 3.6
2017-Dec-09 08:30N 29°44' W 095°12'2 3.8
2017-Dec-09 08:00N 29°45' W 095°10'2 3.9
2017-Dec-09 07:29N 29°44' W 095°08'2 4.0
2017-Dec-09 07:00N 29°45' W 095°06'2 3.6
2017-Dec-09 06:28N 29°47' W 095°04'1 0.3
2017-Dec-09 04:33N 29°47' W 095°04'0 1.8
2017-Dec-09 04:23N 29°47' W 095°04'0 0.1
2017-Dec-08 23:03N 29°47' W 095°04'0 0.0
2017-Dec-08 22:54N 29°47' W 095°04'2 0.5
2017-Dec-08 19:18N 29°46' W 095°05'0 0.0
2017-Dec-08 14:07N 29°46' W 095°06'1 0.1
2017-Dec-07 23:49N 29°47' W 095°04'2 0.8
2017-Dec-07 21:25N 29°45' W 095°06'1 1.6
2017-Dec-07 20:53N 29°46' W 095°05'0 0.7
2017-Dec-07 20:30N 29°46' W 095°05'0 0.1
2017-Dec-07 17:05N 29°46' W 095°06'0 0.0
2017-Dec-07 17:00N 29°46' W 095°06'3 1.4
2017-Dec-07 15:02N 29°44' W 095°08'0 7.0
2017-Dec-07 15:00N 29°44' W 095°08'3 6.1
2017-Dec-07 14:30N 29°45' W 095°12'3 5.2
2017-Dec-07 13:59N 29°43' W 095°14'0 0.7
2017-Dec-07 13:29N 29°43' W 095°14'3 6.6
2017-Dec-07 12:59N 29°45' W 095°11'3 6.7
2017-Dec-07 12:30N 29°44' W 095°07'2 1.0
2017-Dec-07 10:30N 29°46' W 095°05'5 4.8
2017-Dec-07 09:32N 29°43' W 095°01'0 5.7
2017-Dec-07 09:30N 29°43' W 095°01'  

Dump ship's entire track history